EZY46TW EGPH-EGGD
Flight info
| Callsign | EZY46TW |
|---|---|
| Flight time | 1h 0m |
| Altitude | 33000 |
| Route | GOSAM P600 FENIK L612 NAVSO DCT ADZOP DCT EGTOC DCT NOKIN N862 KARNO DCT ALHUP DCT LUCSA N862 WEVBE |
| Aircraft | A21N/M-SDE2E3FGHIRWXYZ/LB1G1 |
Departure
| Time | 2026-05-05 18:32 |
|---|---|
| Airport | Edinburgh Airport (EGPH) |
Arrival
| Time | 2026-05-05 19:33 |
|---|---|
| Airport | Bristol Airport (EGGD) |
| Time | Latitude | Longitude | Altitude | Speed | Heading |
|---|---|---|---|---|---|
| 2026-05-05 18:07 | 55.94657 | -3.36623 | 121 ft | 0 kts | 89° |
| 2026-05-05 18:19 | 55.94657 | -3.36624 | 122 ft | 1 kts | 89° |
| 2026-05-05 18:19 | 55.94656 | -3.36668 | 118 ft | 4 kts | 89° |
| 2026-05-05 18:20 | 55.94655 | -3.36707 | 119 ft | 4 kts | 71° |
| 2026-05-05 18:20 | 55.94642 | -3.36733 | 117 ft | 4 kts | 7° |
| 2026-05-05 18:20 | 55.94617 | -3.36734 | 118 ft | 2 kts | 359° |
| 2026-05-05 18:20 | 55.94616 | -3.36734 | 118 ft | 0 kts | 359° |
| 2026-05-05 18:24 | 55.94618 | -3.36734 | 122 ft | 1 kts | 359° |
| 2026-05-05 18:24 | 55.94634 | -3.36734 | 120 ft | 3 kts | 358° |
| 2026-05-05 18:25 | 55.94666 | -3.36735 | 122 ft | 6 kts | 359° |
| 2026-05-05 18:25 | 55.94697 | -3.36735 | 122 ft | 7 kts | 359° |
| 2026-05-05 18:25 | 55.94773 | -3.36768 | 119 ft | 10 kts | 340° |
| 2026-05-05 18:25 | 55.94846 | -3.36778 | 121 ft | 10 kts | 360° |
| 2026-05-05 18:26 | 55.94913 | -3.36819 | 120 ft | 11 kts | 326° |
| 2026-05-05 18:26 | 55.94905 | -3.36952 | 119 ft | 13 kts | 239° |
| 2026-05-05 18:26 | 55.94857 | -3.37099 | 119 ft | 15 kts | 239° |
| 2026-05-05 18:26 | 55.94801 | -3.37262 | 120 ft | 16 kts | 239° |
| 2026-05-05 18:27 | 55.94740 | -3.37440 | 117 ft | 18 kts | 239° |
| 2026-05-05 18:27 | 55.94676 | -3.37634 | 120 ft | 19 kts | 239° |
| 2026-05-05 18:27 | 55.94606 | -3.37842 | 119 ft | 20 kts | 238° |
| 2026-05-05 18:27 | 55.94531 | -3.38061 | 120 ft | 21 kts | 239° |
| 2026-05-05 18:28 | 55.94417 | -3.38399 | 118 ft | 10 kts | 239° |
| 2026-05-05 18:28 | 55.94376 | -3.38518 | 119 ft | 12 kts | 239° |
| 2026-05-05 18:28 | 55.94330 | -3.38656 | 120 ft | 13 kts | 239° |
| 2026-05-05 18:29 | 55.94304 | -3.38728 | 118 ft | 7 kts | 238° |
| 2026-05-05 18:29 | 55.94280 | -3.38804 | 119 ft | 7 kts | 253° |
| 2026-05-05 18:29 | 55.94293 | -3.38872 | 119 ft | 7 kts | 319° |
| 2026-05-05 18:29 | 55.94309 | -3.38890 | 119 ft | 0 kts | 328° |
| 2026-05-05 18:30 | 55.94321 | -3.38903 | 119 ft | 3 kts | 327° |
| 2026-05-05 18:31 | 55.94349 | -3.38935 | 120 ft | 6 kts | 327° |
| 2026-05-05 18:31 | 55.94396 | -3.38968 | 117 ft | 9 kts | 2° |
| 2026-05-05 18:31 | 55.94432 | -3.38917 | 119 ft | 0 kts | 59° |
| 2026-05-05 18:31 | 55.94449 | -3.38864 | 118 ft | 28 kts | 59° |
| 2026-05-05 18:32 | 55.94694 | -3.38156 | 118 ft | 102 kts | 58° |
| 2026-05-05 18:32 | 55.95172 | -3.36756 | 128 ft | 157 kts | 58° |
| 2026-05-05 18:32 | 55.95763 | -3.35088 | 718 ft | 160 kts | 61° |
| 2026-05-05 18:32 | 55.96409 | -3.33446 | 1472 ft | 171 kts | 49° |
| 2026-05-05 18:33 | 55.97378 | -3.31987 | 1996 ft | 192 kts | 44° |
| 2026-05-05 18:33 | 55.98441 | -3.30325 | 2544 ft | 216 kts | 44° |
| 2026-05-05 18:33 | 55.99621 | -3.28442 | 3155 ft | 237 kts | 41° |
| 2026-05-05 18:33 | 56.01086 | -3.27006 | 4024 ft | 246 kts | 18° |
| 2026-05-05 18:34 | 56.02798 | -3.26763 | 5008 ft | 251 kts | 353° |
| 2026-05-05 18:34 | 56.04432 | -3.27834 | 6054 ft | 252 kts | 328° |
| 2026-05-05 18:34 | 56.05684 | -3.30033 | 6988 ft | 256 kts | 304° |
| 2026-05-05 18:34 | 56.06324 | -3.32986 | 7828 ft | 263 kts | 280° |
| 2026-05-05 18:35 | 56.06208 | -3.36269 | 8757 ft | 271 kts | 256° |
| 2026-05-05 18:35 | 56.05290 | -3.39242 | 9706 ft | 280 kts | 231° |
| 2026-05-05 18:35 | 56.03799 | -3.41563 | 10499 ft | 292 kts | 221° |
| 2026-05-05 18:35 | 56.02243 | -3.44059 | 10909 ft | 309 kts | 234° |
| 2026-05-05 18:36 | 56.01229 | -3.47440 | 11540 ft | 312 kts | 254° |
| 2026-05-05 18:36 | 56.00653 | -3.51204 | 12362 ft | 316 kts | 258° |
| 2026-05-05 18:36 | 56.00128 | -3.55042 | 13236 ft | 319 kts | 258° |
| 2026-05-05 18:36 | 55.99593 | -3.58910 | 14084 ft | 322 kts | 258° |
| 2026-05-05 18:37 | 55.99046 | -3.62808 | 14843 ft | 326 kts | 257° |
| 2026-05-05 18:37 | 55.98491 | -3.66707 | 15589 ft | 329 kts | 257° |
| 2026-05-05 18:37 | 55.97923 | -3.70684 | 16336 ft | 333 kts | 257° |
| 2026-05-05 18:37 | 55.97343 | -3.74715 | 17084 ft | 337 kts | 257° |
| 2026-05-05 18:38 | 55.96752 | -3.78776 | 17819 ft | 340 kts | 257° |
| 2026-05-05 18:38 | 55.96158 | -3.82899 | 18526 ft | 344 kts | 257° |
| 2026-05-05 18:38 | 55.95555 | -3.87054 | 19164 ft | 348 kts | 257° |
| 2026-05-05 18:38 | 55.94948 | -3.91243 | 19787 ft | 351 kts | 257° |
| 2026-05-05 18:39 | 55.94333 | -3.95472 | 20405 ft | 354 kts | 257° |
| 2026-05-05 18:39 | 55.93625 | -3.99635 | 21010 ft | 358 kts | 249° |
| 2026-05-05 18:39 | 55.92349 | -4.03465 | 21600 ft | 364 kts | 233° |
| 2026-05-05 18:39 | 55.90491 | -4.06594 | 22192 ft | 371 kts | 219° |
| 2026-05-05 18:40 | 55.88335 | -4.09160 | 22792 ft | 375 kts | 216° |
| 2026-05-05 18:40 | 55.86123 | -4.11668 | 23384 ft | 378 kts | 216° |
| 2026-05-05 18:40 | 55.83902 | -4.14209 | 23924 ft | 381 kts | 216° |
| 2026-05-05 18:40 | 55.81672 | -4.16792 | 24419 ft | 383 kts | 216° |
| 2026-05-05 18:41 | 55.79438 | -4.19393 | 24911 ft | 386 kts | 216° |
| 2026-05-05 18:41 | 55.77070 | -4.21694 | 25397 ft | 391 kts | 205° |
| 2026-05-05 18:41 | 55.74460 | -4.22965 | 25864 ft | 399 kts | 192° |
| 2026-05-05 18:41 | 55.71697 | -4.23582 | 26335 ft | 402 kts | 189° |
| 2026-05-05 18:42 | 55.68893 | -4.24000 | 26748 ft | 407 kts | 184° |
| 2026-05-05 18:42 | 55.66063 | -4.23423 | 27155 ft | 416 kts | 168° |
| 2026-05-05 18:42 | 55.63362 | -4.21471 | 27557 ft | 423 kts | 154° |
| 2026-05-05 18:42 | 55.60790 | -4.18892 | 27973 ft | 427 kts | 153° |
| 2026-05-05 18:43 | 55.58211 | -4.16252 | 28378 ft | 429 kts | 153° |
| 2026-05-05 18:43 | 55.55612 | -4.13650 | 28774 ft | 431 kts | 154° |
| 2026-05-05 18:43 | 55.52986 | -4.11065 | 29165 ft | 433 kts | 154° |
| 2026-05-05 18:43 | 55.50375 | -4.08520 | 29542 ft | 436 kts | 154° |
| 2026-05-05 18:44 | 55.47711 | -4.05934 | 29918 ft | 438 kts | 154° |
| 2026-05-05 18:44 | 55.45036 | -4.03335 | 30236 ft | 440 kts | 154° |
| 2026-05-05 18:44 | 55.42348 | -4.00732 | 30548 ft | 442 kts | 154° |
| 2026-05-05 18:44 | 55.39641 | -3.98119 | 30858 ft | 445 kts | 154° |
| 2026-05-05 18:45 | 55.36929 | -3.95498 | 31245 ft | 444 kts | 154° |
| 2026-05-05 18:45 | 55.34226 | -3.92888 | 31634 ft | 444 kts | 154° |
| 2026-05-05 18:45 | 55.31520 | -3.90274 | 32029 ft | 443 kts | 154° |
| 2026-05-05 18:45 | 55.28817 | -3.87667 | 32412 ft | 443 kts | 154° |
| 2026-05-05 18:46 | 55.26153 | -3.85102 | 32767 ft | 442 kts | 154° |
| 2026-05-05 18:46 | 55.23449 | -3.82518 | 33059 ft | 443 kts | 156° |
| 2026-05-05 18:46 | 55.17732 | -3.78800 | 33093 ft | 437 kts | 166° |
| 2026-05-05 18:47 | 55.11928 | -3.75671 | 33078 ft | 437 kts | 166° |
| 2026-05-05 18:47 | 55.06123 | -3.72518 | 33068 ft | 437 kts | 166° |
| 2026-05-05 18:48 | 55.00369 | -3.69380 | 33075 ft | 437 kts | 166° |
| 2026-05-05 18:48 | 54.94569 | -3.66226 | 33050 ft | 436 kts | 166° |
| 2026-05-05 18:49 | 54.88789 | -3.63090 | 33057 ft | 435 kts | 166° |
| 2026-05-05 18:49 | 54.83014 | -3.59971 | 33063 ft | 435 kts | 166° |
| 2026-05-05 18:50 | 54.77274 | -3.56877 | 33054 ft | 435 kts | 166° |
| 2026-05-05 18:50 | 54.71491 | -3.53772 | 33056 ft | 435 kts | 166° |
| 2026-05-05 18:51 | 54.65714 | -3.50677 | 33044 ft | 435 kts | 166° |
| 2026-05-05 18:51 | 54.59934 | -3.47596 | 33038 ft | 435 kts | 166° |
| 2026-05-05 18:52 | 54.54195 | -3.44539 | 33039 ft | 435 kts | 166° |
| 2026-05-05 18:52 | 54.48416 | -3.41465 | 33038 ft | 435 kts | 166° |
| 2026-05-05 18:53 | 54.42636 | -3.38408 | 33025 ft | 434 kts | 166° |
| 2026-05-05 18:53 | 54.39744 | -3.36880 | 33185 ft | 435 kts | 166° |
| 2026-05-05 18:53 | 54.36851 | -3.35354 | 33535 ft | 435 kts | 166° |
| 2026-05-05 18:54 | 54.33962 | -3.33834 | 33871 ft | 435 kts | 166° |
| 2026-05-05 18:54 | 54.31105 | -3.32335 | 34146 ft | 435 kts | 166° |
| 2026-05-05 18:54 | 54.28207 | -3.30814 | 34387 ft | 436 kts | 166° |
| 2026-05-05 18:54 | 54.25303 | -3.29293 | 34623 ft | 437 kts | 166° |
| 2026-05-05 18:55 | 54.22392 | -3.27768 | 34835 ft | 438 kts | 166° |
| 2026-05-05 18:55 | 54.19475 | -3.26262 | 35024 ft | 438 kts | 167° |
| 2026-05-05 18:55 | 54.13521 | -3.24780 | 35059 ft | 431 kts | 178° |
| 2026-05-05 18:56 | 54.07550 | -3.23899 | 35040 ft | 430 kts | 178° |
| 2026-05-05 18:56 | 54.01594 | -3.22981 | 35040 ft | 430 kts | 177° |
| 2026-05-05 18:57 | 53.95717 | -3.21148 | 35042 ft | 433 kts | 170° |
| 2026-05-05 18:57 | 53.89848 | -3.18890 | 35045 ft | 433 kts | 170° |
| 2026-05-05 18:58 | 53.83966 | -3.16647 | 35050 ft | 433 kts | 170° |
| 2026-05-05 18:58 | 53.78088 | -3.14422 | 35052 ft | 433 kts | 170° |
| 2026-05-05 18:59 | 53.72231 | -3.12215 | 35052 ft | 433 kts | 170° |
| 2026-05-05 18:59 | 53.66368 | -3.10016 | 35021 ft | 433 kts | 169° |
| 2026-05-05 19:00 | 53.60476 | -3.07811 | 35030 ft | 434 kts | 169° |
| 2026-05-05 19:00 | 53.54583 | -3.05605 | 35030 ft | 434 kts | 169° |
| 2026-05-05 19:01 | 53.48692 | -3.03412 | 35025 ft | 434 kts | 169° |
| 2026-05-05 19:01 | 53.42795 | -3.01224 | 35047 ft | 434 kts | 169° |
| 2026-05-05 19:02 | 53.36941 | -2.99059 | 35053 ft | 433 kts | 170° |
| 2026-05-05 19:02 | 53.31077 | -2.96906 | 35051 ft | 429 kts | 170° |
| 2026-05-05 19:03 | 53.25337 | -2.94793 | 34440 ft | 426 kts | 170° |
| 2026-05-05 19:03 | 53.22416 | -2.93725 | 33927 ft | 433 kts | 170° |
| 2026-05-05 19:03 | 53.19460 | -2.92641 | 33356 ft | 436 kts | 169° |
| 2026-05-05 19:04 | 53.16492 | -2.91551 | 32813 ft | 436 kts | 169° |
| 2026-05-05 19:04 | 53.13583 | -2.90483 | 32272 ft | 432 kts | 169° |
| 2026-05-05 19:04 | 53.10664 | -2.89419 | 31691 ft | 428 kts | 169° |
| 2026-05-05 19:04 | 53.07756 | -2.88551 | 31114 ft | 422 kts | 176° |
| 2026-05-05 19:05 | 53.04844 | -2.88481 | 30551 ft | 416 kts | 184° |
| 2026-05-05 19:05 | 53.01963 | -2.88722 | 29989 ft | 412 kts | 185° |
| 2026-05-05 19:05 | 52.99115 | -2.88994 | 29358 ft | 408 kts | 185° |
| 2026-05-05 19:05 | 52.96290 | -2.89253 | 28709 ft | 405 kts | 185° |
| 2026-05-05 19:06 | 52.93481 | -2.89500 | 28049 ft | 403 kts | 185° |
| 2026-05-05 19:06 | 52.90700 | -2.89739 | 27443 ft | 400 kts | 185° |
| 2026-05-05 19:06 | 52.87942 | -2.90182 | 26868 ft | 395 kts | 189° |
| 2026-05-05 19:06 | 52.85227 | -2.90808 | 26310 ft | 392 kts | 190° |
| 2026-05-05 19:07 | 52.82579 | -2.91445 | 25786 ft | 388 kts | 190° |
| 2026-05-05 19:07 | 52.80785 | -2.91876 | 25435 ft | 386 kts | 190° |
| 2026-05-05 19:07 | 52.77288 | -2.92705 | 24746 ft | 381 kts | 190° |
| 2026-05-05 19:07 | 52.74666 | -2.93322 | 24233 ft | 378 kts | 190° |
| 2026-05-05 19:08 | 52.72073 | -2.93927 | 23727 ft | 375 kts | 189° |
| 2026-05-05 19:08 | 52.69476 | -2.94291 | 23216 ft | 373 kts | 185° |
| 2026-05-05 19:08 | 52.66897 | -2.94508 | 22674 ft | 370 kts | 185° |
| 2026-05-05 19:08 | 52.64340 | -2.94711 | 22096 ft | 367 kts | 185° |
| 2026-05-05 19:09 | 52.61821 | -2.94913 | 21562 ft | 366 kts | 185° |
| 2026-05-05 19:09 | 52.59285 | -2.95120 | 21211 ft | 365 kts | 185° |
| 2026-05-05 19:09 | 52.56755 | -2.95327 | 21011 ft | 364 kts | 185° |
| 2026-05-05 19:09 | 52.54229 | -2.95536 | 20986 ft | 364 kts | 185° |
| 2026-05-05 19:10 | 52.51701 | -2.95745 | 21007 ft | 364 kts | 185° |
| 2026-05-05 19:10 | 52.49172 | -2.95953 | 21008 ft | 364 kts | 185° |
| 2026-05-05 19:10 | 52.46646 | -2.96159 | 21013 ft | 362 kts | 185° |
| 2026-05-05 19:10 | 52.44129 | -2.96368 | 21019 ft | 362 kts | 185° |
| 2026-05-05 19:11 | 52.41617 | -2.96574 | 20973 ft | 360 kts | 185° |
| 2026-05-05 19:11 | 52.39133 | -2.96776 | 20606 ft | 356 kts | 185° |
| 2026-05-05 19:11 | 52.36700 | -2.96974 | 20150 ft | 355 kts | 185° |
| 2026-05-05 19:11 | 52.34238 | -2.97178 | 19686 ft | 354 kts | 185° |
| 2026-05-05 19:12 | 52.31780 | -2.97383 | 19259 ft | 353 kts | 185° |
| 2026-05-05 19:12 | 52.29326 | -2.97583 | 18837 ft | 353 kts | 185° |
| 2026-05-05 19:12 | 52.26869 | -2.97785 | 18427 ft | 353 kts | 185° |
| 2026-05-05 19:12 | 52.24412 | -2.97985 | 17964 ft | 354 kts | 185° |
| 2026-05-05 19:13 | 52.21958 | -2.98181 | 17540 ft | 353 kts | 185° |
| 2026-05-05 19:13 | 52.20328 | -2.98314 | 17270 ft | 353 kts | 185° |
| 2026-05-05 19:13 | 52.17880 | -2.98515 | 16859 ft | 352 kts | 185° |
| 2026-05-05 19:13 | 52.14637 | -2.98779 | 16312 ft | 352 kts | 184° |
| 2026-05-05 19:14 | 52.12198 | -2.98976 | 15922 ft | 350 kts | 185° |
| 2026-05-05 19:14 | 52.09787 | -2.99169 | 15604 ft | 343 kts | 184° |
| 2026-05-05 19:14 | 52.07420 | -2.99358 | 15331 ft | 339 kts | 184° |
| 2026-05-05 19:14 | 52.05858 | -2.99484 | 15155 ft | 339 kts | 185° |
| 2026-05-05 19:15 | 52.03511 | -2.99675 | 14988 ft | 338 kts | 185° |
| 2026-05-05 19:15 | 52.01159 | -2.99864 | 14984 ft | 338 kts | 184° |
| 2026-05-05 19:15 | 51.98810 | -3.00053 | 14999 ft | 337 kts | 185° |
| 2026-05-05 19:15 | 51.96461 | -3.00229 | 15016 ft | 338 kts | 182° |
| 2026-05-05 19:16 | 51.94154 | -2.99839 | 14720 ft | 335 kts | 167° |
| 2026-05-05 19:16 | 51.91941 | -2.98616 | 14187 ft | 336 kts | 160° |
| 2026-05-05 19:16 | 51.89761 | -2.97246 | 13665 ft | 336 kts | 160° |
| 2026-05-05 19:16 | 51.87585 | -2.95887 | 13151 ft | 335 kts | 161° |
| 2026-05-05 19:17 | 51.85430 | -2.94570 | 12632 ft | 335 kts | 161° |
| 2026-05-05 19:17 | 51.83255 | -2.93258 | 12153 ft | 333 kts | 161° |
| 2026-05-05 19:17 | 51.81087 | -2.91961 | 11708 ft | 331 kts | 161° |
| 2026-05-05 19:17 | 51.78940 | -2.90678 | 11289 ft | 328 kts | 160° |
| 2026-05-05 19:18 | 51.76814 | -2.89403 | 10935 ft | 323 kts | 160° |
| 2026-05-05 19:18 | 51.74734 | -2.88160 | 10721 ft | 314 kts | 161° |
| 2026-05-05 19:18 | 51.72714 | -2.86955 | 10507 ft | 306 kts | 161° |
| 2026-05-05 19:18 | 51.70725 | -2.85838 | 10217 ft | 300 kts | 164° |
| 2026-05-05 19:19 | 51.68723 | -2.84942 | 9880 ft | 297 kts | 165° |
| 2026-05-05 19:19 | 51.66732 | -2.84090 | 9478 ft | 295 kts | 166° |
| 2026-05-05 19:19 | 51.64771 | -2.83250 | 9047 ft | 295 kts | 165° |
| 2026-05-05 19:19 | 51.62774 | -2.82391 | 8633 ft | 293 kts | 165° |
| 2026-05-05 19:20 | 51.60837 | -2.81556 | 8239 ft | 292 kts | 165° |
| 2026-05-05 19:20 | 51.58848 | -2.81197 | 7885 ft | 286 kts | 186° |
| 2026-05-05 19:20 | 51.56937 | -2.82011 | 7517 ft | 284 kts | 202° |
| 2026-05-05 19:20 | 51.55117 | -2.83233 | 7112 ft | 283 kts | 204° |
| 2026-05-05 19:21 | 51.53323 | -2.84509 | 6753 ft | 282 kts | 205° |
| 2026-05-05 19:21 | 51.51612 | -2.85997 | 6413 ft | 278 kts | 213° |
| 2026-05-05 19:21 | 51.49994 | -2.87702 | 5991 ft | 278 kts | 214° |
| 2026-05-05 19:21 | 51.48421 | -2.89384 | 5723 ft | 272 kts | 215° |
| 2026-05-05 19:22 | 51.46872 | -2.91032 | 5503 ft | 264 kts | 215° |
| 2026-05-05 19:22 | 51.45370 | -2.92660 | 5242 ft | 257 kts | 220° |
| 2026-05-05 19:22 | 51.44286 | -2.94836 | 4971 ft | 247 kts | 248° |
| 2026-05-05 19:22 | 51.43918 | -2.97442 | 4709 ft | 236 kts | 267° |
| 2026-05-05 19:23 | 51.43822 | -3.00034 | 4449 ft | 229 kts | 270° |
| 2026-05-05 19:23 | 51.43751 | -3.02555 | 4183 ft | 224 kts | 270° |
| 2026-05-05 19:23 | 51.43618 | -3.05006 | 3911 ft | 220 kts | 256° |
| 2026-05-05 19:23 | 51.42882 | -3.07059 | 3639 ft | 216 kts | 224° |
| 2026-05-05 19:24 | 51.41580 | -3.08176 | 3364 ft | 209 kts | 188° |
| 2026-05-05 19:24 | 51.40188 | -3.07989 | 3095 ft | 198 kts | 158° |
| 2026-05-05 19:24 | 51.38880 | -3.07595 | 2907 ft | 197 kts | 188° |
| 2026-05-05 19:24 | 51.37552 | -3.08197 | 2999 ft | 199 kts | 199° |
| 2026-05-05 19:25 | 51.36249 | -3.08951 | 3007 ft | 199 kts | 200° |
| 2026-05-05 19:25 | 51.34948 | -3.09716 | 3052 ft | 199 kts | 200° |
| 2026-05-05 19:25 | 51.33749 | -3.10776 | 3034 ft | 198 kts | 226° |
| 2026-05-05 19:25 | 51.33125 | -3.12680 | 3005 ft | 194 kts | 263° |
| 2026-05-05 19:26 | 51.33308 | -3.14742 | 2997 ft | 187 kts | 300° |
| 2026-05-05 19:26 | 51.34179 | -3.16144 | 2994 ft | 180 kts | 336° |
| 2026-05-05 19:26 | 51.35382 | -3.16374 | 2989 ft | 176 kts | 16° |
| 2026-05-05 19:26 | 51.36303 | -3.15168 | 2990 ft | 179 kts | 61° |
| 2026-05-05 19:27 | 51.36615 | -3.13263 | 3001 ft | 171 kts | 79° |
| 2026-05-05 19:27 | 51.36711 | -3.11444 | 2981 ft | 160 kts | 82° |
| 2026-05-05 19:27 | 51.36787 | -3.09691 | 2981 ft | 160 kts | 83° |
| 2026-05-05 19:27 | 51.36859 | -3.07889 | 2985 ft | 161 kts | 83° |
| 2026-05-05 19:28 | 51.36929 | -3.06102 | 2989 ft | 160 kts | 83° |
| 2026-05-05 19:28 | 51.36998 | -3.04347 | 2990 ft | 160 kts | 83° |
| 2026-05-05 19:28 | 51.37068 | -3.02543 | 2988 ft | 160 kts | 83° |
| 2026-05-05 19:28 | 51.37137 | -3.00785 | 2988 ft | 160 kts | 83° |
| 2026-05-05 19:29 | 51.37207 | -2.99005 | 2989 ft | 161 kts | 83° |
| 2026-05-05 19:29 | 51.37277 | -2.97213 | 2986 ft | 161 kts | 83° |
| 2026-05-05 19:29 | 51.37347 | -2.95422 | 2988 ft | 161 kts | 83° |
| 2026-05-05 19:29 | 51.37416 | -2.93645 | 2987 ft | 161 kts | 83° |
| 2026-05-05 19:30 | 51.37486 | -2.91852 | 2944 ft | 161 kts | 83° |
| 2026-05-05 19:30 | 51.37556 | -2.90073 | 2764 ft | 159 kts | 83° |
| 2026-05-05 19:30 | 51.37625 | -2.88302 | 2555 ft | 159 kts | 83° |
| 2026-05-05 19:30 | 51.37692 | -2.86575 | 2348 ft | 158 kts | 82° |
| 2026-05-05 19:31 | 51.37761 | -2.84835 | 2186 ft | 157 kts | 81° |
| 2026-05-05 19:31 | 51.37827 | -2.83104 | 1964 ft | 149 kts | 81° |
| 2026-05-05 19:31 | 51.37887 | -2.81575 | 1737 ft | 132 kts | 81° |
| 2026-05-05 19:31 | 51.37945 | -2.80108 | 1528 ft | 133 kts | 83° |
| 2026-05-05 19:32 | 51.38002 | -2.78625 | 1341 ft | 134 kts | 82° |
| 2026-05-05 19:32 | 51.38077 | -2.77146 | 1150 ft | 134 kts | 80° |
| 2026-05-05 19:32 | 51.38138 | -2.75669 | 961 ft | 133 kts | 83° |
| 2026-05-05 19:32 | 51.38178 | -2.74188 | 787 ft | 134 kts | 82° |
| 2026-05-05 19:33 | 51.38235 | -2.72722 | 637 ft | 127 kts | 78° |
| 2026-05-05 19:33 | 51.38279 | -2.71702 | 614 ft | 51 kts | 86° |
| 2026-05-05 19:33 | 51.38292 | -2.71311 | 619 ft | 24 kts | 87° |
| 2026-05-05 19:33 | 51.38302 | -2.71029 | 609 ft | 27 kts | 86° |
| 2026-05-05 19:34 | 51.38315 | -2.70797 | 616 ft | 13 kts | 60° |
| 2026-05-05 19:34 | 51.38405 | -2.70729 | 626 ft | 15 kts | 22° |
| 2026-05-05 19:34 | 51.38459 | -2.70714 | 616 ft | 8 kts | 328° |
| 2026-05-05 19:35 | 51.38465 | -2.70948 | 620 ft | 13 kts | 267° |
| 2026-05-05 19:35 | 51.38460 | -2.71106 | 620 ft | 15 kts | 266° |
| 2026-05-05 19:35 | 51.38454 | -2.71263 | 621 ft | 12 kts | 266° |
| 2026-05-05 19:35 | 51.38472 | -2.71389 | 622 ft | 12 kts | 327° |
| 2026-05-05 19:36 | 51.38495 | -2.71441 | 623 ft | 7 kts | 262° |
| 2026-05-05 19:36 | 51.38487 | -2.71520 | 617 ft | 7 kts | 282° |
| 2026-05-05 19:36 | 51.38522 | -2.71543 | 617 ft | 4 kts | 354° |
| 2026-05-05 19:36 | 51.38537 | -2.71545 | 622 ft | 0 kts | 356° |